Time;durP1;ratioP1;P1;durP2;ratioP2;P2;SDS_P1;SDS_P2;PMS_P1;PMS_P2;Temp;Humidity;BMP_temperature;BMP_pressure;BME280_temperature;BME280_humidity;BME280_pressure;Samples;Min_cycle;Max_cycle;Signal;HPM_P1;HPM_P2
2022/11/09 00:01:28;;;;;;;122.97;66.95;;;;;;;21.10;67.27;99020.22;4772578;30;20354;-58
2022/11/09 00:04:12;;;;;;;122.50;64.38;;;;;;;21.07;67.74;99024.28;4765720;30;20829;-59
2022/11/09 00:07:01;;;;;;;122.43;65.55;;;;;;;21.09;67.65;99024.84;4779758;30;20051;-58
2022/11/09 00:09:44;;;;;;;130.68;66.47;;;;;;;21.10;67.77;99026.47;4781120;29;20060;-57
2022/11/09 00:12:39;;;;;;;121.20;67.60;;;;;;;21.01;68.19;99030.03;4781193;29;20085;-56
2022/11/09 00:15:14;;;;;;;128.68;67.60;;;;;;;20.95;68.22;99020.22;4780919;29;20071;-57
2022/11/09 00:18:03;;;;;;;129.25;68.05;;;;;;;21.04;67.66;99024.84;4781139;30;20146;-59
2022/11/09 00:20:46;;;;;;;134.25;65.07;;;;;;;21.04;67.66;99026.78;4780606;29;20062;-57
2022/11/09 00:23:42;;;;;;;130.15;67.25;;;;;;;20.99;67.68;99032.22;4780686;29;20055;-57
2022/11/09 00:26:18;;;;;;;120.57;65.40;;;;;;;20.95;68.16;99033.88;4779459;29;20055;-63
2022/11/09 00:29:15;;;;;;;131.48;65.10;;;;;;;20.88;68.15;99043.16;4779852;30;20147;-58
2022/11/09 00:31:50;;;;;;;127.25;65.97;;;;;;;20.88;68.33;99032.25;4779732;29;20065;-58
2022/11/09 00:34:45;;;;;;;120.93;65.45;;;;;;;20.83;68.41;99026.78;4781462;29;20074;-60
2022/11/09 00:37:35;;;;;;;128.98;65.43;;;;;;;20.71;69.30;99031.69;4764511;30;20059;-58
2022/11/09 00:40:24;;;;;;;115.47;62.97;;;;;;;20.69;69.36;99037.44;4780224;29;20127;-60
2022/11/09 00:43:13;;;;;;;121.32;65.75;;;;;;;20.59;69.89;99029.19;4789189;29;20521;-56
2022/11/09 00:45:55;;;;;;;121.07;66.68;;;;;;;20.61;69.85;99037.16;4765447;29;20067;-59
2022/11/09 00:48:44;;;;;;;122.22;66.18;;;;;;;20.57;70.27;99033.28;4764497;30;20055;-59
2022/11/09 00:51:33;;;;;;;116.30;64.97;;;;;;;20.53;70.41;99041.19;4778692;30;20051;-60
2022/11/09 00:54:16;;;;;;;124.07;64.32;;;;;;;20.45;71.06;99044.47;4764519;30;20472;-58
2022/11/09 00:57:05;;;;;;;125.38;67.55;;;;;;;20.57;70.62;99044.19;4775207;30;20052;-60
2022/11/09 00:59:50;;;;;;;127.85;63.70;;;;;;;20.57;70.45;99050.47;4764012;30;20491;-59
2022/11/09 01:02:40;;;;;;;113.22;63.30;;;;;;;20.53;70.82;99052.91;4776777;30;20098;-59
2022/11/09 01:05:22;;;;;;;117.95;65.13;;;;;;;20.52;71.15;99059.47;4765259;30;20062;-53
2022/11/09 01:08:12;;;;;;;115.40;64.38;;;;;;;20.48;71.34;99055.66;4754175;30;20052;-58
2022/11/09 01:11:08;;;;;;;117.78;67.10;;;;;;;20.65;70.37;99073.69;4775037;30;20074;-59
2022/11/09 01:13:51;;;;;;;123.43;65.95;;;;;;;20.53;70.70;99069.28;4783644;29;20116;-58
2022/11/09 01:16:41;;;;;;;116.55;64.70;;;;;;;20.48;70.65;99071.16;4770263;30;20489;-57
2022/11/09 01:19:33;;;;;;;117.82;63.50;;;;;;;20.42;70.55;99075.78;4767530;30;20142;-60
2022/11/09 01:22:15;;;;;;;117.38;64.93;;;;;;;20.48;70.29;99082.06;4782300;29;20055;-58
2022/11/09 01:25:05;;;;;;;118.03;62.83;;;;;;;20.35;71.08;99075.25;4783487;30;20067;-57
2022/11/09 01:28:01;;;;;;;110.20;59.20;;;;;;;20.33;71.18;99077.44;4782599;29;20051;-58
2022/11/09 01:30:42;;;;;;;107.03;60.80;;;;;;;20.49;70.26;99065.44;4783210;29;20140;-61
2022/11/09 01:33:31;;;;;;;104.28;58.72;;;;;;;20.40;70.25;99069.78;4773896;30;20055;-59
2022/11/09 01:36:18;;;;;;;107.78;60.15;;;;;;;20.47;70.65;99073.09;4784216;29;20520;-59
2022/11/09 01:39:06;;;;;;;123.57;63.80;;;;;;;20.59;70.15;99074.75;4783905;30;20047;-58
2022/11/09 01:41:49;;;;;;;111.15;59.58;;;;;;;20.57;70.10;99076.91;4782120;30;20299;-59
2022/11/09 01:44:38;;;;;;;115.53;60.28;;;;;;;20.53;69.95;99072.00;4780613;30;20060;-58
2022/11/09 01:47:29;;;;;;;111.68;62.03;;;;;;;20.50;69.92;99072.56;4783230;30;20511;-59
2022/11/09 01:50:26;;;;;;;121.78;61.75;;;;;;;20.52;70.13;99080.44;4772181;29;20418;-59
2022/11/09 01:53:12;;;;;;;109.95;60.88;;;;;;;20.48;71.06;99074.75;4778779;29;20051;-59
2022/11/09 01:56:04;;;;;;;110.40;61.00;;;;;;;20.41;70.76;99082.34;4782530;30;20083;-59
2022/11/09 01:59:09;;;;;;;104.35;59.53;;;;;;;20.61;69.90;99080.78;4779389;30;20144;-61
2022/11/09 02:01:59;;;;;;;110.07;58.70;;;;;;;20.58;70.45;99082.13;4765502;30;20500;-59
2022/11/09 02:04:53;;;;;;;104.95;59.90;;;;;;;20.78;70.58;99091.44;4762815;30;20047;-59
2022/11/09 02:07:43;;;;;;;111.93;61.83;;;;;;;20.92;69.73;99095.25;4764082;30;20051;-60
2022/11/09 02:10:49;;;;;;;123.35;60.95;;;;;;;21.05;69.71;99096.59;4781782;29;20071;-57
2022/11/09 02:13:32;;;;;;;118.18;61.97;;;;;;;21.15;69.28;99104.78;4766896;30;20079;-58
2022/11/09 02:16:22;;;;;;;120.03;62.53;;;;;;;21.24;69.16;99103.13;4758954;29;20048;-59
2022/11/09 02:19:04;;;;;;;108.60;57.83;;;;;;;21.41;69.92;99102.03;4777062;30;20130;-59
2022/11/09 02:21:56;;;;;;;106.88;59.15;;;;;;;21.55;68.48;99108.56;4776140;30;20055;-62
2022/11/09 02:24:45;;;;;;;116.45;58.80;;;;;;;21.80;67.71;99104.13;4782832;30;20377;-58
2022/11/09 02:27:27;;;;;;;104.85;57.17;;;;;;;21.96;65.24;99100.28;4765702;30;20066;-58
2022/11/09 02:30:18;;;;;;;107.90;57.50;;;;;;;22.26;63.55;99101.25;4779680;30;20055;-60
2022/11/09 02:33:08;;;;;;;113.57;54.95;;;;;;;22.55;63.57;99106.03;4782245;30;20083;-57
2022/11/09 02:35:57;;;;;;;91.57;55.40;;;;;;;22.68;65.83;99111.66;4768173;29;20066;-59
2022/11/09 02:38:46;;;;;;;94.82;53.20;;;;;;;22.81;62.95;99123.06;4780535;30;20055;-58
2022/11/09 02:41:30;;;;;;;98.32;55.08;;;;;;;22.92;62.14;99135.56;4764544;30;20062;-59
2022/11/09 02:44:26;;;;;;;92.88;54.55;;;;;;;23.20;61.95;99142.22;4780494;30;20154;-57
2022/11/09 02:47:01;;;;;;;123.85;58.80;;;;;;;23.25;61.75;99146.84;4781035;30;20484;-59
2022/11/09 02:49:52;;;;;;;98.53;54.38;;;;;;;23.08;61.28;99143.69;4765908;30;20542;-57
2022/11/09 02:52:34;;;;;;;109.82;57.13;;;;;;;22.90;61.97;99156.13;4766656;30;20127;-59
2022/11/09 02:55:24;;;;;;;112.43;55.22;;;;;;;23.13;65.34;99157.34;4756373;30;20055;-60
2022/11/09 02:58:06;;;;;;;115.00;60.40;;;;;;;23.12;63.72;99156.53;4750958;30;20455;-58
2022/11/09 03:00:54;;;;;;;127.43;68.38;;;;;;;23.18;62.59;99173.75;4779835;30;20369;-60
2022/11/09 03:03:44;;;;;;;137.60;70.63;;;;;;;23.32;62.04;99182.13;4763952;30;20846;-58
2022/11/09 03:06:33;;;;;;;128.98;61.63;;;;;;;23.45;61.78;99192.41;4778409;30;20087;-58
2022/11/09 03:09:25;;;;;;;119.22;59.67;;;;;;;23.54;62.71;99178.91;4764712;30;20059;-60
2022/11/09 03:15:18;;;;;;;109.70;56.60;;;;;;;23.81;63.30;99197.59;4782064;29;20063;-60
2022/11/09 03:18:07;;;;;;;109.82;52.38;;;;;;;24.04;60.74;99205.00;4782386;29;20500;-58
2022/11/09 03:20:56;;;;;;;94.80;53.03;;;;;;;24.04;58.99;99212.44;4782090;29;20067;-56
2022/11/09 03:23:45;;;;;;;96.68;53.83;;;;;;;24.07;58.22;99208.28;4781448;29;20163;-60
2022/11/09 03:26:27;;;;;;;95.53;53.22;;;;;;;24.03;56.74;99208.84;4780535;30;20079;-58
2022/11/09 03:29:16;;;;;;;98.78;51.60;;;;;;;24.25;56.15;99210.28;4764996;29;20066;-58
2022/11/09 03:32:07;;;;;;;102.57;53.67;;;;;;;24.48;56.27;99213.31;4766182;30;20061;-57
2022/11/09 03:34:50;;;;;;;92.95;54.17;;;;;;;24.71;55.41;99209.72;4775795;30;20062;-58
2022/11/09 03:37:45;;;;;;;94.03;50.83;;;;;;;25.02;55.82;99212.81;4746678;30;20553;-59
2022/11/09 03:40:20;;;;;;;92.70;52.17;;;;;;;25.31;55.31;99213.81;4746904;30;20062;-58
2022/11/09 03:43:16;;;;;;;105.35;51.78;;;;;;;25.00;53.60;99219.75;4739385;30;20471;-58
2022/11/09 03:45:52;;;;;;;90.70;52.47;;;;;;;25.09;52.87;99228.13;4763085;30;20051;-56
2022/11/09 03:48:48;;;;;;;98.07;52.35;;;;;;;24.94;54.49;99226.44;4763242;30;20137;-57
2022/11/09 03:51:23;;;;;;;88.40;52.00;;;;;;;25.29;55.83;99229.78;4761016;30;20051;-58
2022/11/09 03:54:20;;;;;;;94.90;50.95;;;;;;;25.43;53.58;99230.63;4762784;30;20055;-57
2022/11/09 03:57:15;;;;;;;92.38;50.13;;;;;;;26.15;53.75;99232.97;4754051;30;20060;-60
2022/11/09 03:59:50;;;;;;;98.95;52.03;;;;;;;26.01;50.47;99231.34;4761472;30;20560;-58
2022/11/09 04:02:45;;;;;;;88.47;49.83;;;;;;;26.52;52.19;99231.16;4761004;30;20048;-58
2022/11/09 04:05:28;;;;;;;101.22;52.83;;;;;;;26.57;51.20;99246.72;4761489;30;20488;-57
2022/11/09 04:08:17;;;;;;;96.20;55.13;;;;;;;26.25;50.24;99251.19;4757976;30;20431;-57
2022/11/09 04:10:59;;;;;;;103.00;60.40;;;;;;;26.92;50.63;99249.84;4762332;30;20396;-55
2022/11/09 04:13:48;;;;;;;104.32;56.40;;;;;;;27.40;50.11;99248.50;4762194;30;20048;-55
2022/11/09 04:16:38;;;;;;;118.90;62.85;;;;;;;27.01;49.08;99247.19;4759797;30;20060;-57
2022/11/09 04:19:21;;;;;;;110.18;62.28;;;;;;;27.19;49.45;99245.41;4761273;30;20093;-59
2022/11/09 04:22:11;;;;;;;124.07;63.75;;;;;;;27.20;50.06;99258.06;4760416;30;20062;-56
2022/11/09 04:24:53;;;;;;;110.10;61.88;;;;;;;27.31;49.83;99256.72;4761959;30;20047;-57
2022/11/09 04:27:42;;;;;;;115.57;61.92;;;;;;;27.70;48.72;99255.22;4762302;30;20052;-57
2022/11/09 04:30:32;;;;;;;117.07;65.55;;;;;;;27.13;49.73;99251.03;4760389;30;20121;-56
2022/11/09 04:33:16;;;;;;;127.35;63.72;;;;;;;26.97;48.93;99252.50;4760789;30;20062;-58
2022/11/09 04:36:12;;;;;;;108.93;63.97;;;;;;;27.44;49.13;99255.84;4771067;29;20593;-56
2022/11/09 04:38:47;;;;;;;95.38;58.75;;;;;;;27.67;49.08;99247.59;4780912;30;20056;-59
2022/11/09 04:41:37;;;;;;;120.53;69.00;;;;;;;27.83;50.41;99243.28;4780012;30;20059;-57
2022/11/09 04:44:26;;;;;;;121.95;69.35;;;;;;;27.54;46.97;99254.78;4780414;30;20059;-57
2022/11/09 04:47:14;;;;;;;124.38;66.95;;;;;;;27.41;48.67;99250.16;4780047;30;20087;-56
2022/11/09 04:50:04;;;;;;;130.65;71.30;;;;;;;27.65;48.45;99249.81;4779311;30;20120;-57
2022/11/09 04:52:45;;;;;;;118.32;67.97;;;;;;;27.63;48.50;99246.56;4779600;29;20063;-57
2022/11/09 04:55:35;;;;;;;118.47;68.70;;;;;;;26.56;48.31;99250.63;4779482;30;20063;-56
2022/11/09 04:58:16;;;;;;;119.60;65.53;;;;;;;27.17;48.37;99253.16;4779307;29;20067;-57
2022/11/09 05:01:16;;;;;;;124.28;67.75;;;;;;;27.26;46.75;99249.38;4781034;29;20800;-60
2022/11/09 05:03:58;;;;;;;127.63;68.63;;;;;;;27.31;47.13;99252.03;4780388;29;20079;-60
2022/11/09 05:06:47;;;;;;;115.75;66.07;;;;;;;27.50;46.70;99259.31;4779422;29;20058;-60
2022/11/09 05:09:28;;;;;;;130.70;67.57;;;;;;;27.76;48.13;99256.69;4778632;29;20138;-59
2022/11/09 05:12:19;;;;;;;118.45;66.32;;;;;;;27.63;47.62;99255.66;4763124;30;20154;-58
2022/11/09 05:15:00;;;;;;;106.95;63.55;;;;;;;27.97;46.60;99262.53;4776188;30;20055;-58
2022/11/09 05:17:50;;;;;;;116.45;66.45;;;;;;;28.11;48.40;99251.44;4779059;30;20059;-58
2022/11/09 05:20:32;;;;;;;117.20;65.47;;;;;;;27.83;46.25;99254.31;4778580;30;20051;-58
2022/11/09 05:26:21;;;;;;;129.20;66.95;;;;;;;27.48;47.27;99248.59;4779053;30;20055;-61
2022/11/09 05:29:15;;;;;;;115.75;65.50;;;;;;;27.68;47.21;99251.97;4779536;30;20132;-61
2022/11/09 05:31:56;;;;;;;101.85;57.13;;;;;;;27.99;47.20;99240.97;4780189;30;20154;-61
2022/11/09 05:34:46;;;;;;;114.43;64.00;;;;;;;27.23;46.63;99235.38;4779786;30;20116;-61
2022/11/09 05:37:27;;;;;;;115.40;65.38;;;;;;;27.56;47.00;99238.75;4780596;29;20055;-60
2022/11/09 05:40:17;;;;;;;114.15;65.40;;;;;;;27.56;45.21;99244.25;4779705;30;20059;-60
2022/11/09 05:43:05;;;;;;;113.55;62.70;;;;;;;27.67;46.26;99236.56;4762915;30;20056;-58
2022/11/09 05:45:48;;;;;;;110.45;62.55;;;;;;;27.74;45.82;99234.16;4776681;29;20547;-58
2022/11/09 05:48:36;;;;;;;101.75;60.60;;;;;;;28.50;46.77;99231.25;4780334;29;20138;-57
2022/11/09 05:51:26;;;;;;;99.47;59.03;;;;;;;28.74;47.58;99223.69;4780000;29;20066;-58
2022/11/09 05:54:08;;;;;;;107.82;63.78;;;;;;;28.59;46.50;99217.50;4782278;29;20692;-59
2022/11/09 05:56:57;;;;;;;107.38;59.88;;;;;;;28.19;43.59;99217.53;4781675;30;20078;-57
2022/11/09 05:59:45;;;;;;;92.35;54.85;;;;;;;28.39;45.16;99207.03;4783046;30;20158;-57
2022/11/09 06:02:39;;;;;;;85.53;48.53;;;;;;;27.97;41.95;99203.78;4781648;30;20059;-58
2022/11/09 06:05:21;;;;;;;81.68;46.58;;;;;;;28.11;42.07;99202.56;4776101;29;20379;-66
2022/11/09 06:08:12;;;;;;;76.30;43.30;;;;;;;27.70;40.86;99200.88;4782487;29;20055;-60
2022/11/09 06:10:59;;;;;;;79.18;42.22;;;;;;;28.16;43.37;99204.34;4781404;30;20051;-59
2022/11/09 06:13:48;;;;;;;87.72;50.00;;;;;;;28.00;44.36;99194.91;4780226;30;20063;-59
2022/11/09 06:16:43;;;;;;;94.63;51.72;;;;;;;28.19;42.02;99198.22;4781604;30;20059;-59
2022/11/09 06:19:18;;;;;;;85.60;48.03;;;;;;;28.30;45.00;99194.03;4782404;30;20351;-60
2022/11/09 06:22:08;;;;;;;92.15;50.28;;;;;;;28.60;43.25;99193.47;4781754;30;20054;-60
2022/11/09 06:24:57;;;;;;;93.18;52.30;;;;;;;28.65;42.08;99194.13;4782106;29;20071;-59
2022/11/09 06:27:52;;;;;;;103.88;50.72;;;;;;;28.56;41.72;99186.97;4782308;30;20117;-59
2022/11/09 06:30:27;;;;;;;91.60;49.67;;;;;;;28.62;41.99;99178.19;4782358;30;20075;-60
2022/11/09 06:33:16;;;;;;;87.93;51.65;;;;;;;27.72;41.58;99179.34;4781906;29;20051;-59
2022/11/09 06:36:06;;;;;;;89.72;49.83;;;;;;;28.73;42.56;99180.66;4782198;29;20137;-59
2022/11/09 06:38:51;;;;;;;88.75;48.78;;;;;;;29.14;41.53;99171.09;4784897;29;20058;-59
2022/11/09 06:41:40;;;;;;;85.38;49.17;;;;;;;28.93;41.88;99171.75;4780835;29;20151;-60
2022/11/09 06:44:35;;;;;;;95.60;48.35;;;;;;;28.64;39.55;99170.44;4780706;30;20555;-59
2022/11/09 06:47:10;;;;;;;82.97;48.08;;;;;;;28.72;39.97;99162.44;4781594;30;20064;-59
2022/11/09 06:49:59;;;;;;;85.25;48.63;;;;;;;28.87;41.85;99148.16;4781868;30;20081;-58
2022/11/09 06:52:49;;;;;;;82.78;48.10;;;;;;;28.61;44.30;99154.50;4781689;29;20063;-59
2022/11/09 06:55:33;;;;;;;97.60;51.38;;;;;;;28.62;41.55;99158.88;4782237;30;20051;-58
2022/11/09 06:58:30;;;;;;;87.05;47.95;;;;;;;28.30;41.49;99158.16;4781642;30;20073;-60
2022/11/09 07:01:15;;;;;;;96.33;49.50;;;;;;;28.39;39.87;99158.16;4781650;29;20059;-58
2022/11/09 07:04:05;;;;;;;88.03;48.72;;;;;;;28.42;39.92;99143.72;4779797;29;20083;-59
2022/11/09 07:06:46;;;;;;;86.63;50.83;;;;;;;28.89;43.68;99143.94;4781910;30;20051;-59
2022/11/09 07:09:36;;;;;;;89.63;48.53;;;;;;;28.87;41.63;99142.63;4765070;30;20143;-60
2022/11/09 07:12:17;;;;;;;89.05;48.63;;;;;;;28.79;41.49;99137.94;4780799;30;20112;-59
2022/11/09 07:15:08;;;;;;;78.07;46.35;;;;;;;28.78;42.54;99139.09;4780319;30;20066;-59
2022/11/09 07:17:50;;;;;;;88.07;47.50;;;;;;;28.75;42.57;99131.44;4762158;30;20131;-60
2022/11/09 07:20:39;;;;;;;97.88;48.88;;;;;;;28.53;43.50;99143.44;4780556;30;20512;-60
2022/11/09 07:23:27;;;;;;;154.68;81.82;;;;;;;28.57;45.69;99136.16;4781142;30;20492;-60
2022/11/09 07:26:10;;;;;;;133.77;70.93;;;;;;;28.68;46.06;99131.91;4781418;30;20082;-59
2022/11/09 07:29:05;;;;;;;141.48;79.93;;;;;;;28.61;46.53;99132.41;4781781;30;20051;-59
2022/11/09 07:31:40;;;;;;;141.98;77.13;;;;;;;28.64;46.22;99131.75;4781476;30;20055;-60
2022/11/09 07:34:36;;;;;;;172.60;95.35;;;;;;;28.67;46.93;99131.09;4779999;30;20059;-59
2022/11/09 07:37:17;;;;;;;204.43;110.72;;;;;;;28.30;47.81;99138.03;4781577;29;20039;-59
2022/11/09 07:40:07;;;;;;;203.40;115.30;;;;;;;27.93;48.95;99131.88;4774394;30;20833;-59
2022/11/09 07:42:48;;;;;;;223.73;125.65;;;;;;;27.84;49.49;99134.59;4781790;30;20108;-59
2022/11/09 07:45:40;;;;;;;213.25;116.10;;;;;;;27.71;49.83;99133.56;4780687;30;20063;-59
2022/11/09 07:48:22;;;;;;;190.82;109.35;;;;;;;27.63;50.21;99128.84;4781173;29;20124;-59
2022/11/09 07:51:11;;;;;;;196.02;106.25;;;;;;;27.70;50.01;99125.59;4781588;29;20051;-59
2022/11/09 07:53:52;;;;;;;185.15;98.97;;;;;;;27.78;49.80;99119.31;4782468;29;20055;-59
2022/11/09 07:56:43;;;;;;;128.07;73.50;;;;;;;27.26;50.84;99117.09;4780626;30;20070;-58
2022/11/09 07:59:25;;;;;;;166.52;83.55;;;;;;;27.57;49.88;99109.97;4779694;30;20047;-58
2022/11/09 08:02:15;;;;;;;146.68;81.85;;;;;;;27.48;50.20;99107.19;4780858;30;20112;-57
2022/11/09 08:04:57;;;;;;;126.22;71.15;;;;;;;27.88;48.79;99108.03;4779428;30;20565;-59
2022/11/09 08:07:46;;;;;;;98.07;54.53;;;;;;;27.37;49.85;99098.38;4780039;30;20047;-59
2022/11/09 08:10:30;;;;;;;116.25;65.18;;;;;;;27.90;49.22;99089.22;4779958;30;20162;-57
2022/11/09 08:13:21;;;;;;;100.50;57.35;;;;;;;27.90;48.80;99091.97;4777363;30;20154;-60
2022/11/09 08:16:04;;;;;;;102.20;55.85;;;;;;;27.74;49.90;99088.00;4780443;29;20059;-58
2022/11/09 08:18:55;;;;;;;92.13;55.58;;;;;;;27.17;51.97;99083.13;4781162;30;20134;-59
2022/11/09 08:21:38;;;;;;;95.00;52.95;;;;;;;27.03;51.69;99074.97;4765226;30;20139;-58
2022/11/09 08:24:33;;;;;;;100.80;57.92;;;;;;;27.46;50.58;99079.94;4611125;29;10000676;-59
2022/11/09 08:27:16;;;;;;;110.85;57.20;;;;;;;27.45;50.58;99074.75;4772135;30;20876;-60
2022/11/09 08:30:08;;;;;;;91.72;54.97;;;;;;;27.14;51.54;99075.53;4778006;30;20070;-60
2022/11/09 08:32:51;;;;;;;88.05;53.78;;;;;;;26.40;53.58;99073.16;4777444;30;20459;-61
2022/11/09 08:35:48;;;;;;;86.85;51.65;;;;;;;27.39;51.34;99078.78;4775658;29;20066;-60
2022/11/09 08:38:46;;;;;;;92.32;50.72;;;;;;;27.26;51.11;99078.53;4758805;30;20056;-61
2022/11/09 08:41:42;;;;;;;79.57;49.25;;;;;;;27.51;50.01;99074.25;4756906;30;20059;-56
2022/11/09 08:44:19;;;;;;;83.25;47.88;;;;;;;27.47;49.83;99076.03;4759687;30;20129;-61
2022/11/09 08:47:09;;;;;;;98.80;56.30;;;;;;;27.37;50.57;99070.00;4759257;30;20070;-58
2022/11/09 08:49:54;;;;;;;91.65;51.63;;;;;;;27.35;50.25;99070.31;4759596;30;20154;-60
2022/11/09 08:52:43;;;;;;;99.40;57.90;;;;;;;27.48;50.13;99058.38;4758895;30;20079;-59
2022/11/09 08:55:33;;;;;;;102.32;61.72;;;;;;;27.45;50.41;99052.69;4759346;30;20739;-61
2022/11/09 08:58:30;;;;;;;91.13;55.20;;;;;;;26.11;51.82;99055.09;4759699;30;20063;-65
2022/11/09 09:01:20;;;;;;;97.22;58.40;;;;;;;26.64;52.15;99053.66;4758567;30;20121;-61
2022/11/09 09:04:03;;;;;;;98.50;54.35;;;;;;;26.98;51.33;99047.56;4758854;30;20154;-62
2022/11/09 09:06:55;;;;;;;90.68;52.20;;;;;;;26.73;51.84;99044.31;4758098;30;20460;-63
2022/11/09 09:09:38;;;;;;;92.93;53.30;;;;;;;27.31;50.31;99047.28;4757529;30;20075;-61
2022/11/09 09:12:29;;;;;;;88.25;51.83;;;;;;;27.31;49.98;99039.00;4757839;30;20051;-61
2022/11/09 09:15:13;;;;;;;89.18;51.42;;;;;;;26.89;49.91;99032.94;4759160;30;20057;-62
2022/11/09 09:18:06;;;;;;;80.38;49.30;;;;;;;26.87;50.49;99032.44;4759083;30;20938;-59
2022/11/09 09:20:48;;;;;;;83.20;46.33;;;;;;;26.90;49.67;99026.28;4756976;30;20129;-59
2022/11/09 09:23:39;;;;;;;79.22;44.40;;;;;;;26.92;49.42;99021.25;4757923;30;20527;-60
2022/11/09 09:26:29;;;;;;;87.47;50.10;;;;;;;26.45;49.42;99020.75;4753588;30;20059;-62
2022/11/09 09:29:20;;;;;;;85.82;46.45;;;;;;;26.56;50.51;99017.44;4747717;30;20052;-64
2022/11/09 09:32:03;;;;;;;82.63;46.60;;;;;;;26.71;50.56;99018.22;4751890;30;20052;-59
2022/11/09 09:34:56;;;;;;;99.25;54.45;;;;;;;26.38;52.54;99021.97;4758923;30;20051;-62
2022/11/09 09:37:46;;;;;;;89.10;53.85;;;;;;;26.62;51.68;99012.66;4762841;30;20832;-64
2022/11/09 09:41:03;;;;;;;96.47;56.15;;;;;;;26.60;52.62;99012.16;4776633;30;20160;-65
2022/11/09 09:43:46;;;;;;;122.55;67.97;;;;;;;24.88;57.83;99013.44;4775490;30;20102;-60
2022/11/09 09:46:44;;;;;;;103.30;60.88;;;;;;;26.10;54.74;99018.53;4771842;29;20582;-60
2022/11/09 09:49:36;;;;;;;119.57;65.05;;;;;;;25.86;55.62;99013.25;4776911;30;20049;-60
2022/11/09 09:52:45;;;;;;;114.45;64.32;;;;;;;25.92;56.32;99014.78;4778599;29;21496;-60
2022/11/09 09:55:53;;;;;;;114.55;64.07;;;;;;;26.62;54.17;99015.41;4778732;30;20165;-57
2022/11/09 09:59:07;;;;;;;97.60;56.88;;;;;;;25.49;55.58;99012.38;4779245;30;20063;-61
2022/11/09 10:01:57;;;;;;;;;;;;;;;26.34;54.48;99025.69;4778563;30;20058;-61
2022/11/09 10:04:41;;;;;;;98.85;51.60;;;;;;;25.94;53.71;99020.78;4777316;30;19990;-61
2022/11/09 10:07:30;;;;;;;98.95;48.47;;;;;;;24.74;55.57;99019.72;4774490;30;20134;-65
2022/11/09 10:10:46;;;;;;;93.80;49.33;;;;;;;25.92;54.62;99020.28;4776460;30;20313;-63
2022/11/09 10:13:32;;;;;;;83.90;44.63;;;;;;;25.79;54.67;99015.59;4776462;30;20071;-61
2022/11/09 10:16:48;;;;;;;76.65;44.33;;;;;;;25.30;54.21;99019.84;4775547;30;20886;-59
2022/11/09 10:19:39;;;;;;;70.55;42.88;;;;;;;25.54;53.75;99014.19;4763467;29;20127;-63
2022/11/09 10:22:31;;;;;;;70.15;38.83;;;;;;;24.99;53.01;99020.41;4775193;30;20063;-63
2022/11/09 10:25:34;;;;;;;71.90;38.10;;;;;;;25.69;52.50;99011.13;4777395;30;20061;-63
2022/11/09 10:28:48;;;;;;;75.68;39.80;;;;;;;25.73;54.08;99022.31;4777518;30;20055;-65
2022/11/09 10:31:58;;;;;;;63.50;36.80;;;;;;;25.57;50.64;99019.88;4777983;29;20496;-68
2022/11/09 10:35:12;;;;;;;68.20;37.33;;;;;;;24.37;52.76;99018.66;4778802;30;20481;-60
2022/11/09 10:38:09;;;;;;;67.30;39.00;;;;;;;24.71;52.61;99011.28;4449365;29;9953423;-63
2022/11/09 10:41:43;;;;;;;74.63;40.88;;;;;;;24.72;52.85;99007.41;4778915;30;20055;-62
2022/11/09 10:44:52;;;;;;;72.05;43.30;;;;;;;24.65;52.44;99010.56;4778471;30;20103;-63
2022/11/09 10:47:53;;;;;;;77.97;43.72;;;;;;;24.51;53.02;99009.66;4767098;30;20646;-65
2022/11/09 10:51:03;;;;;;;80.30;46.55;;;;;;;24.38;52.96;99012.06;4779491;30;20066;-62
2022/11/09 10:54:27;;;;;;;86.95;47.83;;;;;;;24.96;52.56;99015.53;4776753;30;20059;-61
2022/11/09 10:57:31;;;;;;;88.47;50.53;;;;;;;24.60;52.90;99013.38;4774977;30;20731;-61
2022/11/09 11:00:59;;;;;;;98.35;51.45;;;;;;;24.32;53.42;99004.19;4771729;29;20063;-63
2022/11/09 11:04:03;;;;;;;87.78;47.80;;;;;;;24.05;53.36;99002.94;4772684;29;20059;-67
2022/11/09 11:07:18;;;;;;;86.40;46.20;;;;;;;24.05;53.81;99008.41;4767179;30;20072;-64
2022/11/09 11:10:23;;;;;;;89.93;48.78;;;;;;;24.39;53.61;98997.22;4771406;30;20070;-65
2022/11/09 11:13:30;;;;;;;82.90;46.22;;;;;;;23.56;55.09;98998.59;4763500;29;20125;-66
2022/11/09 11:16:42;;;;;;;74.82;44.17;;;;;;;24.51;53.46;98998.69;4777640;29;20208;-65
2022/11/09 11:19:51;;;;;;;75.93;42.67;;;;;;;24.40;53.49;98998.84;4777844;30;20091;-64
2022/11/09 11:22:52;;;;;;;75.80;42.75;;;;;;;24.60;53.69;99003.22;4779471;30;20968;-65
2022/11/09 11:26:23;;;;;;;71.80;39.45;;;;;;;24.27;54.45;98999.59;4770449;29;20144;-62
2022/11/09 11:29:40;;;;;;;66.97;40.10;;;;;;;23.79;55.09;99006.03;4765703;30;20051;-62
2022/11/09 11:32:41;;;;;;;65.95;39.05;;;;;;;23.68;54.88;99011.91;4779444;29;20152;-60
2022/11/09 11:36:07;;;;;;;68.45;40.20;;;;;;;23.56;55.23;99012.31;4778701;29;20240;-62
2022/11/09 11:39:30;;;;;;;74.53;40.28;;;;;;;23.58;54.61;99010.94;4764503;30;20074;-61
2022/11/09 11:42:55;;;;;;;83.22;41.13;;;;;;;23.68;54.58;99003.69;4779506;29;20240;-61
2022/11/09 11:46:15;;;;;;;71.82;39.85;;;;;;;24.01;53.84;99001.91;4780685;30;20062;-61
2022/11/09 11:49:33;;;;;;;75.60;39.90;;;;;;;23.59;54.52;99007.06;4780122;29;20070;-61
2022/11/09 11:52:39;;;;;;;79.93;41.22;;;;;;;23.32;54.95;99007.66;4768373;29;20083;-61
2022/11/09 11:55:56;;;;;;;73.15;40.42;;;;;;;23.68;54.46;99020.13;4781576;29;20075;-60
2022/11/09 11:59:33;;;;;;;68.78;38.47;;;;;;;23.89;53.87;99021.53;4781592;30;20527;-61
2022/11/09 12:03:17;;;;;;;75.78;38.80;;;;;;;24.11;53.89;99020.13;4779028;30;20062;-61
2022/11/09 12:07:02;;;;;;;68.38;38.78;;;;;;;23.75;53.55;99020.56;4771911;29;20513;-61
2022/11/09 12:10:21;;;;;;;63.78;38.42;;;;;;;23.92;52.93;99023.69;4768818;29;20295;-60
2022/11/09 12:13:44;;;;;;;66.35;38.40;;;;;;;23.94;53.31;99024.22;4763539;29;20086;-59
2022/11/09 12:16:48;;;;;;;73.38;39.42;;;;;;;23.96;54.36;99027.47;4774441;29;20055;-60
2022/11/09 12:20:06;;;;;;;68.68;39.50;;;;;;;23.40;54.14;99030.84;4771826;29;20062;-60
2022/11/09 12:23:34;;;;;;;72.18;40.33;;;;;;;23.64;55.24;99037.16;4764543;30;20051;-61
2022/11/09 12:27:00;;;;;;;69.97;39.70;;;;;;;23.63;54.69;99035.50;4780067;30;20140;-63
2022/11/09 12:30:29;;;;;;;67.07;39.80;;;;;;;23.70;55.92;99035.16;4779779;30;20084;-61
2022/11/09 12:34:02;;;;;;;77.22;41.10;;;;;;;23.06;54.57;99039.94;4775048;30;20127;-60
2022/11/09 12:37:30;;;;;;;68.95;40.55;;;;;;;23.21;54.59;99047.22;4779293;29;20059;-60
2022/11/09 12:40:53;;;;;;;70.13;41.45;;;;;;;23.49;55.46;99053.75;4779850;29;20151;-64
2022/11/09 12:44:13;;;;;;;90.60;42.47;;;;;;;23.48;55.25;99057.59;4774181;29;20066;-62
2022/11/09 12:47:27;;;;;;;77.93;41.83;;;;;;;23.48;56.54;99065.00;4758601;29;20177;-66
2022/11/09 12:50:37;;;;;;;67.40;41.35;;;;;;;23.42;55.25;99062.31;4778394;29;20146;-62
2022/11/09 12:53:38;;;;;;;75.13;43.50;;;;;;;23.23;55.05;99070.47;4795227;29;20062;-61
2022/11/09 12:57:10;;;;;;;78.75;45.95;;;;;;;23.38;54.32;99068.66;4781481;29;20067;-66
2022/11/09 13:00:32;;;;;;;89.87;46.10;;;;;;;23.48;55.58;99081.44;4780443;30;20152;-64
2022/11/09 13:03:44;;;;;;;85.13;46.30;;;;;;;23.32;56.08;99083.53;4777280;30;20333;-62
2022/11/09 13:07:29;;;;;;;84.28;50.00;;;;;;;23.28;56.25;99093.44;4762819;30;20047;-60
2022/11/09 13:10:44;;;;;;;92.40;51.80;;;;;;;23.29;57.24;99097.78;4778290;30;20176;-61
2022/11/09 13:13:51;;;;;;;97.13;51.85;;;;;;;22.88;59.04;99098.94;4778772;30;20165;-61
2022/11/09 13:17:00;;;;;;;99.80;50.65;;;;;;;22.93;59.05;99098.06;4779378;30;20134;-60
2022/11/09 13:20:00;;;;;;;88.53;49.40;;;;;;;22.56;60.10;99104.91;4777715;30;20051;-60
2022/11/09 13:23:10;;;;;;;88.60;48.60;;;;;;;22.90;60.25;99109.59;4777867;30;20047;-61